Time;durP1;ratioP1;P1;durP2;ratioP2;P2;SDS_P1;SDS_P2;PMS_P1;PMS_P2;Temp;Humidity;BMP_temperature;BMP_pressure;BME280_temperature;BME280_humidity;BME280_pressure;Samples;Min_cycle;Max_cycle;Signal;HPM_P1;HPM_P2
2023/08/20 00:02:11;;;;;;;10.60;3.83;;;14.60;93.30;;;;;;5011571;28;20784;-67
2023/08/20 00:04:37;;;;;;;12.10;3.70;;;14.60;93.40;;;;;;5010159;28;20037;-67
2023/08/20 00:07:03;;;;;;;8.97;3.60;;;14.50;93.40;;;;;;4993788;28;20397;-67
2023/08/20 00:09:30;;;;;;;8.87;4.03;;;14.50;93.60;;;;;;5011134;28;20330;-67
2023/08/20 00:11:55;;;;;;;8.37;3.37;;;14.50;93.80;;;;;;5006064;28;20100;-67
2023/08/20 00:15:06;;;;;;;11.57;3.93;;;14.50;93.80;;;;;;5007832;28;20292;-67
2023/08/20 00:17:36;;;;;;;6.10;3.13;;;14.50;93.80;;;;;;5017395;28;20099;-67
2023/08/20 00:20:09;;;;;;;6.63;3.57;;;14.50;94.00;;;;;;5020051;28;20670;-68
2023/08/20 00:22:36;;;;;;;11.13;3.73;;;14.50;94.00;;;;;;5012654;28;20284;-68
2023/08/20 00:25:03;;;;;;;9.87;3.93;;;14.40;93.90;;;;;;5011748;28;20312;-68
2023/08/20 00:27:29;;;;;;;11.30;4.10;;;14.40;93.90;;;;;;5004549;28;20367;-67
2023/08/20 00:29:55;;;;;;;12.17;3.10;;;14.40;93.90;;;;;;5011556;28;20851;-67
2023/08/20 00:32:21;;;;;;;9.13;3.40;;;14.30;94.10;;;;;;5012024;28;20041;-67
2023/08/20 00:34:46;;;;;;;8.87;3.40;;;14.30;94.30;;;;;;5010765;28;20051;-67
2023/08/20 00:37:12;;;;;;;10.27;3.10;;;14.30;94.40;;;;;;5004363;28;20045;-67
2023/08/20 00:39:38;;;;;;;16.23;4.20;;;14.30;94.60;;;;;;5006087;28;20060;-67
2023/08/20 00:42:04;;;;;;;10.87;3.77;;;14.30;94.70;;;;;;4999563;28;20037;-67
2023/08/20 00:44:30;;;;;;;9.57;3.23;;;14.30;94.80;;;;;;4996295;28;20326;-67
2023/08/20 00:46:56;;;;;;;7.40;3.83;;;14.30;94.80;;;;;;4996192;28;20041;-67
2023/08/20 00:49:22;;;;;;;13.10;4.30;;;14.40;95.30;;;;;;5013155;28;20291;-67
2023/08/20 00:51:49;;;;;;;12.87;4.57;;;14.40;95.30;;;;;;5023682;28;20280;-67
2023/08/20 00:54:15;;;;;;;12.10;4.47;;;14.40;95.30;;;;;;5013418;28;20366;-67
2023/08/20 00:56:41;;;;;;;7.47;3.87;;;14.40;95.70;;;;;;5024523;28;20354;-67
2023/08/20 00:59:07;;;;;;;8.23;3.90;;;14.40;95.40;;;;;;5000801;28;20044;-67
2023/08/20 01:01:33;;;;;;;11.73;4.47;;;14.30;95.80;;;;;;5012442;28;20783;-67
2023/08/20 01:03:59;;;;;;;11.83;3.53;;;14.30;95.50;;;;;;5010218;28;20038;-67
2023/08/20 01:06:49;;;;;;;11.40;4.00;;;14.30;95.60;;;;;;5005371;28;20057;-67
2023/08/20 01:09:27;;;;;;;13.33;5.00;;;14.20;95.50;;;;;;5013416;28;20532;-67
2023/08/20 01:11:59;;;;;;;9.40;4.73;;;14.30;95.70;;;;;;5016718;28;20301;-67
2023/08/20 01:14:24;;;;;;;12.13;4.47;;;14.20;95.90;;;;;;4998110;28;20308;-67
2023/08/20 01:16:50;;;;;;;10.83;4.50;;;14.30;95.90;;;;;;5012531;28;20338;-67
2023/08/20 01:19:20;;;;;;;11.13;5.00;;;14.30;95.90;;;;;;5045529;28;20402;-67
2023/08/20 01:22:13;;;;;;;12.73;4.80;;;14.30;96.00;;;;;;5007857;28;20049;-67
2023/08/20 01:25:17;;;;;;;13.50;4.67;;;14.30;96.00;;;;;;5020860;28;20303;-67
2023/08/20 01:28:16;;;;;;;9.47;4.20;;;14.30;96.00;;;;;;5047588;28;20283;-67
2023/08/20 01:30:44;;;;;;;15.67;5.33;;;14.20;96.20;;;;;;5025990;28;20284;-68
2023/08/20 01:33:12;;;;;;;12.63;4.60;;;14.20;96.20;;;;;;5027236;28;20272;-68
2023/08/20 01:35:38;;;;;;;11.37;5.07;;;14.20;96.40;;;;;;5032363;28;20671;-68
2023/08/20 01:38:04;;;;;;;10.00;5.20;;;14.20;96.40;;;;;;5032024;28;20291;-67
2023/08/20 01:40:31;;;;;;;11.67;5.00;;;14.20;96.20;;;;;;5028256;28;20041;-67
2023/08/20 01:42:57;;;;;;;9.37;4.43;;;14.10;96.20;;;;;;5028147;28;20618;-67
2023/08/20 01:45:23;;;;;;;9.03;4.63;;;14.10;96.30;;;;;;5028811;28;20319;-67
2023/08/20 01:47:49;;;;;;;16.13;5.30;;;14.10;96.40;;;;;;5032062;28;20283;-67
2023/08/20 01:50:15;;;;;;;8.40;5.33;;;14.10;96.40;;;;;;5031505;28;20357;-67
2023/08/20 01:52:40;;;;;;;12.27;4.90;;;14.00;96.60;;;;;;5030872;28;20041;-67
2023/08/20 01:55:06;;;;;;;10.80;5.03;;;14.00;96.70;;;;;;5031612;28;20036;-67
2023/08/20 01:57:32;;;;;;;9.90;4.63;;;14.00;96.80;;;;;;5031209;28;20076;-67
2023/08/20 01:59:58;;;;;;;10.53;5.40;;;14.00;96.80;;;;;;5031599;28;20296;-67
2023/08/20 02:02:24;;;;;;;9.23;4.37;;;14.00;96.90;;;;;;5031675;28;20287;-67
2023/08/20 02:04:50;;;;;;;12.20;5.17;;;14.00;97.00;;;;;;5031140;28;20044;-67
2023/08/20 02:07:16;;;;;;;9.80;4.90;;;14.00;97.00;;;;;;5026115;28;20075;-67
2023/08/20 02:09:41;;;;;;;12.30;5.20;;;14.10;97.00;;;;;;5027153;28;20045;-67
2023/08/20 02:12:07;;;;;;;11.83;4.63;;;14.10;97.30;;;;;;5030906;28;20509;-67
2023/08/20 02:14:34;;;;;;;10.10;4.53;;;14.10;97.30;;;;;;5026723;28;20042;-67
2023/08/20 02:17:04;;;;;;;14.63;5.93;;;14.20;97.40;;;;;;5024234;28;20283;-67
2023/08/20 02:19:29;;;;;;;20.27;5.57;;;14.20;97.60;;;;;;5024382;28;20670;-68
2023/08/20 02:21:55;;;;;;;9.37;4.87;;;14.30;97.70;;;;;;5022737;28;20638;-68
2023/08/20 02:24:21;;;;;;;10.90;5.57;;;14.30;98.40;;;;;;5022318;28;20061;-68
2023/08/20 02:26:47;;;;;;;10.10;5.60;;;14.30;98.20;;;;;;4994943;28;20799;-68
2023/08/20 02:29:13;;;;;;;12.27;5.00;;;14.40;98.20;;;;;;5011412;28;20037;-68
2023/08/20 02:31:38;;;;;;;10.17;5.20;;;14.40;98.10;;;;;;5008767;28;20559;-67
2023/08/20 02:34:04;;;;;;;9.20;4.87;;;14.40;98.00;;;;;;5010857;28;20437;-68
2023/08/20 02:36:30;;;;;;;8.43;4.93;;;14.40;97.80;;;;;;5011100;28;20083;-68
2023/08/20 02:38:55;;;;;;;11.50;5.70;;;14.40;97.90;;;;;;5011119;28;20029;-68
2023/08/20 02:41:21;;;;;;;10.07;5.07;;;14.40;97.90;;;;;;5011288;28;20103;-68
2023/08/20 02:43:47;;;;;;;9.07;4.83;;;14.40;97.90;;;;;;5010530;28;20068;-68
2023/08/20 02:46:13;;;;;;;13.63;5.40;;;14.30;97.90;;;;;;5010829;28;20489;-68
2023/08/20 02:48:39;;;;;;;15.60;5.07;;;14.30;98.00;;;;;;5010408;28;20295;-68
2023/08/20 02:51:05;;;;;;;11.63;5.37;;;14.30;98.10;;;;;;5011067;28;20388;-67
2023/08/20 02:53:30;;;;;;;11.13;5.63;;;14.30;98.00;;;;;;5011097;28;20060;-67
2023/08/20 02:55:56;;;;;;;12.07;5.10;;;14.30;98.10;;;;;;5011341;28;20096;-67
2023/08/20 02:58:22;;;;;;;9.90;5.40;;;14.20;98.20;;;;;;5005477;28;20458;-67
2023/08/20 03:00:48;;;;;;;9.17;4.97;;;14.20;98.40;;;;;;5010967;28;20033;-68
2023/08/20 03:03:13;;;;;;;11.90;5.23;;;14.20;98.60;;;;;;5010572;28;20644;-68
2023/08/20 03:05:39;;;;;;;8.23;5.30;;;14.20;98.60;;;;;;5009304;28;20037;-68
2023/08/20 03:08:06;;;;;;;12.50;5.63;;;14.20;98.50;;;;;;4994098;28;20033;-68
2023/08/20 03:10:32;;;;;;;13.13;5.50;;;14.20;98.50;;;;;;5006561;28;20037;-67
2023/08/20 03:13:02;;;;;;;10.53;5.73;;;14.20;98.60;;;;;;5010866;28;20588;-67
2023/08/20 03:15:31;;;;;;;11.43;5.87;;;14.20;98.60;;;;;;5010123;28;20291;-68
2023/08/20 03:17:56;;;;;;;13.03;5.77;;;14.20;98.60;;;;;;5010467;28;20291;-68
2023/08/20 03:20:22;;;;;;;10.83;5.67;;;14.20;98.70;;;;;;5010965;28;20803;-68
2023/08/20 03:22:48;;;;;;;13.17;6.00;;;14.10;98.90;;;;;;5006259;28;20037;-67
2023/08/20 03:25:14;;;;;;;9.83;5.90;;;14.10;99.00;;;;;;5021886;28;20055;-67
2023/08/20 03:27:41;;;;;;;11.87;5.43;;;14.10;99.00;;;;;;5025823;28;20284;-67
2023/08/20 03:30:07;;;;;;;9.77;5.50;;;14.10;99.20;;;;;;5023882;28;20044;-67
2023/08/20 03:32:33;;;;;;;14.07;6.00;;;14.10;99.10;;;;;;5007500;28;20279;-67
2023/08/20 03:34:59;;;;;;;9.57;5.97;;;14.10;99.10;;;;;;5019727;28;20283;-67
2023/08/20 03:37:28;;;;;;;11.23;5.67;;;14.10;99.20;;;;;;5026998;28;20536;-68
2023/08/20 03:39:53;;;;;;;9.13;4.93;;;14.10;99.30;;;;;;5029508;28;20409;-68
2023/08/20 03:42:19;;;;;;;11.37;5.50;;;14.10;99.30;;;;;;5030260;28;20284;-68
2023/08/20 03:44:45;;;;;;;11.60;5.43;;;14.00;99.30;;;;;;5029490;28;20052;-68
2023/08/20 03:47:10;;;;;;;11.80;4.87;;;14.00;99.40;;;;;;5030748;28;20144;-68
2023/08/20 03:49:37;;;;;;;10.67;5.10;;;13.90;99.50;;;;;;5016572;28;20112;-68
2023/08/20 03:52:03;;;;;;;11.53;5.40;;;14.00;99.40;;;;;;5031245;28;20037;-68
2023/08/20 03:54:29;;;;;;;12.77;6.20;;;13.90;99.60;;;;;;5030231;28;20755;-68
2023/08/20 03:56:55;;;;;;;11.50;4.97;;;13.90;99.70;;;;;;5030039;28;20324;-68
2023/08/20 03:59:21;;;;;;;11.17;5.60;;;14.00;99.90;;;;;;5028893;28;20760;-68
2023/08/20 04:01:47;;;;;;;9.67;5.23;;;14.00;99.80;;;;;;5027524;28;20124;-68
2023/08/20 04:04:13;;;;;;;10.90;5.20;;;14.00;99.80;;;;;;5027070;28;20299;-68
2023/08/20 04:06:39;;;;;;;11.47;5.70;;;14.00;99.80;;;;;;5010609;28;20721;-68
2023/08/20 04:09:06;;;;;;;8.27;4.47;;;13.90;99.80;;;;;;5017122;28;20041;-68
2023/08/20 04:11:32;;;;;;;8.93;4.20;;;14.00;99.90;;;;;;5020306;28;20036;-68
2023/08/20 04:13:57;;;;;;;8.97;4.30;;;13.90;99.90;;;;;;5024374;28;20291;-68
2023/08/20 04:16:23;;;;;;;9.80;4.47;;;13.90;99.90;;;;;;5030914;28;20155;-68
2023/08/20 04:18:49;;;;;;;9.67;4.80;;;13.90;99.90;;;;;;5037510;28;20554;-68
2023/08/20 04:21:14;;;;;;;8.83;5.20;;;13.90;99.90;;;;;;5028998;28;20577;-68
2023/08/20 04:23:41;;;;;;;8.77;4.13;;;13.90;99.90;;;;;;5032736;28;20037;-68
2023/08/20 04:26:07;;;;;;;12.97;5.40;;;13.90;99.90;;;;;;5032196;28;20058;-68
2023/08/20 04:28:33;;;;;;;7.97;4.13;;;13.90;99.90;;;;;;5008767;28;20292;-68
2023/08/20 04:31:00;;;;;;;8.73;4.47;;;13.90;99.90;;;;;;5027577;28;20288;-68
2023/08/20 04:33:26;;;;;;;12.17;4.50;;;13.90;99.90;;;;;;5021203;28;20172;-68
2023/08/20 04:35:52;;;;;;;9.73;4.53;;;13.90;99.90;;;;;;5024095;28;20279;-68
2023/08/20 04:38:18;;;;;;;7.97;4.30;;;13.90;99.90;;;;;;5029857;28;20288;-68
2023/08/20 04:40:47;;;;;;;8.70;4.13;;;14.00;99.90;;;;;;5031214;28;21346;-68
2023/08/20 04:43:13;;;;;;;7.03;4.00;;;14.00;99.90;;;;;;5021425;28;20982;-68
2023/08/20 04:45:39;;;;;;;12.30;5.07;;;14.10;99.90;;;;;;5031115;28;20392;-68
2023/08/20 04:48:05;;;;;;;12.43;4.60;;;14.10;99.90;;;;;;5027277;28;20496;-68
2023/08/20 04:50:31;;;;;;;8.80;4.80;;;14.20;99.90;;;;;;5011531;28;20068;-68
2023/08/20 04:52:59;;;;;;;10.07;4.67;;;14.20;99.90;;;;;;5011265;28;20310;-68
2023/08/20 04:55:25;;;;;;;10.97;4.50;;;14.20;99.90;;;;;;5029720;28;20037;-68
2023/08/20 04:57:51;;;;;;;11.10;4.40;;;14.30;99.90;;;;;;5031989;28;20284;-68
2023/08/20 05:00:17;;;;;;;8.27;4.17;;;14.30;99.90;;;;;;5031289;28;20632;-68
2023/08/20 05:02:42;;;;;;;10.73;3.93;;;14.40;99.90;;;;;;5032588;28;20076;-68
2023/08/20 05:05:08;;;;;;;9.03;4.47;;;14.50;99.90;;;;;;5047530;28;20042;-68
2023/08/20 05:07:34;;;;;;;10.77;4.17;;;14.60;99.90;;;;;;5023947;28;20552;-68
2023/08/20 05:10:00;;;;;;;9.47;4.20;;;14.60;99.90;;;;;;5010526;28;20029;-68
2023/08/20 05:12:26;;;;;;;11.43;4.77;;;14.70;99.90;;;;;;5028646;28;20433;-68
2023/08/20 05:14:51;;;;;;;9.27;4.47;;;14.70;99.90;;;;;;5029359;28;20045;-68
2023/08/20 05:17:17;;;;;;;9.73;4.20;;;14.80;99.90;;;;;;5030379;28;20079;-68
2023/08/20 05:19:43;;;;;;;12.20;4.13;;;14.80;99.90;;;;;;5032045;28;20485;-68
2023/08/20 05:22:10;;;;;;;13.00;4.57;;;14.90;99.90;;;;;;5015810;28;20037;-68
2023/08/20 05:24:36;;;;;;;10.20;3.70;;;15.00;99.90;;;;;;5030928;28;20104;-68
2023/08/20 05:27:09;;;;;;;12.80;4.20;;;15.10;99.90;;;;;;5032001;28;20283;-68
2023/08/20 05:29:37;;;;;;;9.47;4.37;;;15.20;99.90;;;;;;5021305;28;20041;-68
2023/08/20 05:32:03;;;;;;;9.43;3.93;;;15.30;99.90;;;;;;5027719;28;20295;-68
2023/08/20 05:34:29;;;;;;;11.10;4.20;;;15.40;99.90;;;;;;5030715;28;20372;-68
2023/08/20 05:36:55;;;;;;;10.63;3.70;;;15.40;99.90;;;;;;5032094;28;20636;-68
2023/08/20 05:39:20;;;;;;;6.73;2.93;;;15.50;99.90;;;;;;5030055;28;20043;-68
2023/08/20 05:41:46;;;;;;;14.13;3.80;;;15.70;99.90;;;;;;5031150;28;20394;-68
2023/08/20 05:44:12;;;;;;;11.93;4.00;;;15.70;99.90;;;;;;5030234;28;20421;-68
2023/08/20 05:46:37;;;;;;;14.07;3.93;;;15.80;99.90;;;;;;5018614;28;20045;-68
2023/08/20 05:49:03;;;;;;;10.23;4.33;;;15.90;99.90;;;;;;5030036;28;20033;-68
2023/08/20 05:51:29;;;;;;;10.73;3.67;;;16.00;99.90;;;;;;5027266;28;20046;-68
2023/08/20 05:53:54;;;;;;;7.23;3.50;;;16.10;99.90;;;;;;5031695;28;20037;-68
2023/08/20 05:56:20;;;;;;;14.23;3.60;;;16.30;99.90;;;;;;5025875;28;20421;-68
2023/08/20 05:58:46;;;;;;;13.80;3.73;;;16.30;99.90;;;;;;5030985;28;20412;-68
2023/08/20 06:01:11;;;;;;;11.83;3.47;;;16.50;99.90;;;;;;5028361;28;20043;-68
2023/08/20 06:03:37;;;;;;;13.03;3.77;;;16.60;99.90;;;;;;5025738;28;20053;-68
2023/08/20 06:06:03;;;;;;;13.47;3.53;;;16.60;99.90;;;;;;5028986;28;20383;-68
2023/08/20 06:08:29;;;;;;;11.03;3.70;;;16.80;99.90;;;;;;5022523;28;20405;-68
2023/08/20 06:10:54;;;;;;;13.77;3.77;;;16.90;99.90;;;;;;5031117;28;20462;-68
2023/08/20 06:13:20;;;;;;;11.40;3.30;;;17.00;99.90;;;;;;5027422;28;20044;-68
2023/08/20 06:15:46;;;;;;;16.83;3.90;;;17.10;99.90;;;;;;5025209;28;20036;-68
2023/08/20 06:18:11;;;;;;;11.93;4.20;;;17.20;99.90;;;;;;5027288;28;20033;-68
2023/08/20 06:20:37;;;;;;;11.80;3.73;;;17.30;99.90;;;;;;5025860;28;20041;-68
2023/08/20 06:23:03;;;;;;;14.17;4.17;;;17.40;99.90;;;;;;5027630;28;20053;-68
2023/08/20 06:25:29;;;;;;;11.10;3.30;;;17.50;99.90;;;;;;5028365;28;20048;-68
2023/08/20 06:27:54;;;;;;;12.37;3.53;;;17.60;99.90;;;;;;5024320;28;20127;-68
2023/08/20 06:30:20;;;;;;;13.17;4.30;;;17.70;99.90;;;;;;5007586;28;20063;-68
2023/08/20 06:32:46;;;;;;;17.73;4.73;;;17.80;99.90;;;;;;5023627;28;20419;-68
2023/08/20 06:35:12;;;;;;;15.33;4.10;;;17.90;99.90;;;;;;5027248;28;20090;-68
2023/08/20 06:37:40;;;;;;;12.53;3.60;;;18.00;99.90;;;;;;5024606;28;20720;-68
2023/08/20 06:40:07;;;;;;;10.03;3.80;;;18.10;99.90;;;;;;5026530;28;20038;-68
2023/08/20 06:42:33;;;;;;;12.67;3.73;;;18.20;99.90;;;;;;5017637;28;20095;-68
2023/08/20 06:44:59;;;;;;;7.87;3.63;;;18.50;99.90;;;;;;5019826;28;20037;-68
2023/08/20 06:47:25;;;;;;;13.93;4.00;;;19.10;99.90;;;;;;5025352;28;20558;-68
2023/08/20 06:49:51;;;;;;;9.40;3.63;;;19.90;99.90;;;;;;5021259;28;20091;-68
2023/08/20 06:52:17;;;;;;;14.53;3.87;;;20.40;97.40;;;;;;5021599;28;20045;-68
2023/08/20 06:54:44;;;;;;;7.43;2.97;;;20.50;95.10;;;;;;5013388;28;20559;-68
2023/08/20 06:57:09;;;;;;;12.43;3.70;;;20.30;94.40;;;;;;5027780;28;20246;-68
2023/08/20 06:59:35;;;;;;;9.37;3.20;;;20.10;94.50;;;;;;5013486;28;20570;-68
2023/08/20 07:02:01;;;;;;;13.30;3.60;;;19.90;95.10;;;;;;5030529;28;20491;-68
2023/08/20 07:04:26;;;;;;;12.13;3.77;;;19.80;95.60;;;;;;5024850;28;20473;-68
2023/08/20 07:06:52;;;;;;;13.00;3.37;;;19.70;95.80;;;;;;5029521;28;20041;-68
2023/08/20 07:09:18;;;;;;;10.90;3.47;;;19.70;96.00;;;;;;5023177;28;20065;-68
2023/08/20 07:11:43;;;;;;;15.17;3.77;;;19.60;95.90;;;;;;5026932;28;20135;-68
2023/08/20 07:14:09;;;;;;;16.47;4.20;;;19.60;95.80;;;;;;5006484;28;20041;-68
2023/08/20 07:16:35;;;;;;;10.70;3.60;;;19.60;95.90;;;;;;5030974;28;20083;-68
2023/08/20 07:19:00;;;;;;;16.53;4.40;;;19.60;95.70;;;;;;5036844;28;20144;-68
2023/08/20 07:21:26;;;;;;;13.10;3.50;;;19.70;95.70;;;;;;5026142;28;20041;-66
2023/08/20 07:23:52;;;;;;;9.87;3.60;;;19.70;95.50;;;;;;5011558;28;20100;-66
2023/08/20 07:26:18;;;;;;;17.07;3.97;;;19.70;95.20;;;;;;5026966;28;20282;-66
2023/08/20 07:28:56;;;;;;;13.10;4.10;;;19.70;95.10;;;;;;5030083;28;20077;-66
2023/08/20 07:31:23;;;;;;;14.47;3.70;;;19.80;95.30;;;;;;5021718;28;20037;-66
2023/08/20 07:33:49;;;;;;;12.57;3.67;;;19.90;95.00;;;;;;5027307;28;20091;-66
2023/08/20 07:36:16;;;;;;;14.93;4.50;;;20.00;95.30;;;;;;5044112;28;20076;-66
2023/08/20 07:38:43;;;;;;;11.13;3.30;;;20.20;95.00;;;;;;5024045;28;20119;-66
2023/08/20 07:41:12;;;;;;;11.83;3.30;;;20.30;95.00;;;;;;5019872;28;20226;-66
2023/08/20 07:43:39;;;;;;;14.07;4.47;;;20.50;94.80;;;;;;5014478;28;20124;-66
2023/08/20 07:46:05;;;;;;;9.13;2.80;;;20.60;94.30;;;;;;5028235;28;20466;-66
2023/08/20 07:48:31;;;;;;;12.53;3.33;;;20.70;93.90;;;;;;5028949;28;20080;-66
2023/08/20 07:50:57;;;;;;;10.90;2.93;;;20.70;88.90;;;;;;5029371;28;20063;-66
2023/08/20 07:53:23;;;;;;;10.37;2.57;;;20.70;90.20;;;;;;5027405;28;20060;-66
2023/08/20 07:55:49;;;;;;;18.20;3.20;;;20.80;91.40;;;;;;5028455;28;20055;-66
2023/08/20 07:58:14;;;;;;;11.83;2.53;;;20.80;90.60;;;;;;5027535;28;20082;-66
2023/08/20 08:00:40;;;;;;;7.80;2.67;;;20.90;90.00;;;;;;5025229;28;20045;-66
2023/08/20 08:03:06;;;;;;;9.30;2.37;;;21.00;90.90;;;;;;5010218;28;20087;-66
2023/08/20 08:05:32;;;;;;;13.93;3.37;;;21.00;89.10;;;;;;5006553;28;20306;-66
2023/08/20 08:07:57;;;;;;;8.73;2.70;;;21.10;87.90;;;;;;5022183;28;20037;-67
2023/08/20 08:10:23;;;;;;;9.50;2.43;;;21.00;86.20;;;;;;5020508;28;20462;-67
2023/08/20 08:12:49;;;;;;;9.53;2.83;;;21.00;86.50;;;;;;5020572;28;20041;-67
2023/08/20 08:15:15;;;;;;;15.37;3.27;;;21.20;87.50;;;;;;5017998;28;20110;-67
2023/08/20 08:17:40;;;;;;;7.37;2.20;;;21.40;87.20;;;;;;5025403;28;20769;-67
2023/08/20 08:20:06;;;;;;;13.40;2.57;;;21.70;87.10;;;;;;5027341;28;20104;-67
2023/08/20 08:22:32;;;;;;;12.07;2.63;;;21.90;84.70;;;;;;5026634;28;20045;-67
2023/08/20 08:24:58;;;;;;;9.87;1.70;;;22.00;83.10;;;;;;5030171;28;20088;-67
2023/08/20 08:27:23;;;;;;;9.37;2.53;;;22.00;83.10;;;;;;5026370;28;20072;-67
2023/08/20 08:29:51;;;;;;;11.93;2.93;;;21.80;82.10;;;;;;5011642;28;20474;-67
2023/08/20 08:32:16;;;;;;;7.60;1.83;;;21.70;82.60;;;;;;5023313;28;20129;-67
2023/08/20 08:34:42;;;;;;;15.10;2.93;;;21.70;83.30;;;;;;5035855;28;20197;-67
2023/08/20 08:37:08;;;;;;;11.23;2.07;;;21.80;83.50;;;;;;5028067;28;20056;-67
2023/08/20 08:39:33;;;;;;;9.50;2.30;;;21.90;82.50;;;;;;5034061;28;20037;-67
2023/08/20 08:42:04;;;;;;;7.63;2.00;;;22.00;81.80;;;;;;5028678;28;20425;-67
2023/08/20 08:44:36;;;;;;;8.73;2.30;;;22.00;81.50;;;;;;5029823;28;20520;-67
2023/08/20 08:47:03;;;;;;;6.23;1.70;;;22.00;82.40;;;;;;5040136;28;20672;-67
2023/08/20 08:49:30;;;;;;;9.87;2.20;;;22.10;79.70;;;;;;5035886;28;20037;-67
2023/08/20 08:51:59;;;;;;;13.03;2.60;;;22.10;78.50;;;;;;5038638;28;20098;-67
2023/08/20 08:54:26;;;;;;;10.13;2.20;;;22.20;79.60;;;;;;5038753;28;20052;-67
2023/08/20 08:56:52;;;;;;;9.57;2.17;;;22.10;77.70;;;;;;5033627;28;20145;-67
2023/08/20 08:59:19;;;;;;;10.37;1.70;;;22.10;77.80;;;;;;5028997;28;20516;-67
2023/08/20 09:01:45;;;;;;;12.07;2.57;;;22.10;76.20;;;;;;5040416;28;20354;-67
2023/08/20 09:04:10;;;;;;;6.50;1.33;;;22.10;78.90;;;;;;5030030;28;20143;-67
2023/08/20 09:06:52;;;;;;;9.17;2.03;;;22.30;79.10;;;;;;5038858;28;20332;-67
2023/08/20 09:09:19;;;;;;;4.97;1.70;;;22.50;76.20;;;;;;5040143;28;20037;-67
2023/08/20 09:11:46;;;;;;;11.10;2.50;;;22.70;77.50;;;;;;5033126;28;20044;-67
2023/08/20 09:14:28;;;;;;;9.23;2.13;;;22.90;76.70;;;;;;5032744;28;20041;-67
2023/08/20 09:16:56;;;;;;;11.03;1.70;;;23.00;77.20;;;;;;5030121;28;20533;-67
2023/08/20 09:19:21;;;;;;;9.10;2.23;;;23.00;77.10;;;;;;5028013;28;20107;-67
2023/08/20 09:21:48;;;;;;;10.13;2.07;;;23.00;76.30;;;;;;5023806;28;20041;-67
2023/08/20 09:24:14;;;;;;;10.60;2.80;;;23.10;76.50;;;;;;5030448;28;20616;-67
2023/08/20 09:26:44;;;;;;;13.13;2.20;;;23.00;74.40;;;;;;5025724;28;20131;-67
2023/08/20 09:29:11;;;;;;;9.63;1.87;;;22.80;73.80;;;;;;5030342;28;20042;-67
2023/08/20 09:31:38;;;;;;;8.33;1.97;;;22.80;74.40;;;;;;5025366;28;20044;-67
2023/08/20 09:34:04;;;;;;;10.50;1.90;;;22.90;75.50;;;;;;5031729;28;20709;-67
2023/08/20 09:36:31;;;;;;;7.10;1.40;;;23.10;75.10;;;;;;5027368;28;20046;-67
2023/08/20 09:38:57;;;;;;;5.67;1.27;;;23.20;75.10;;;;;;5032066;28;20084;-67
2023/08/20 09:41:26;;;;;;;6.33;1.97;;;23.30;73.80;;;;;;5016319;28;20120;-67
2023/08/20 09:43:56;;;;;;;9.47;1.40;;;23.20;72.40;;;;;;5031546;28;20494;-67
2023/08/20 09:46:24;;;;;;;6.87;1.20;;;23.00;71.90;;;;;;5030756;28;20053;-68
2023/08/20 09:48:54;;;;;;;9.53;1.73;;;22.90;73.20;;;;;;5030326;28;20117;-68
2023/08/20 09:51:26;;;;;;;6.50;1.43;;;23.10;72.80;;;;;;5026771;28;20045;-67
2023/08/20 09:54:06;;;;;;;7.23;1.63;;;23.30;71.30;;;;;;5030391;28;20397;-68
2023/08/20 09:56:40;;;;;;;6.17;1.33;;;23.50;71.90;;;;;;5031952;28;20037;-68
2023/08/20 09:59:07;;;;;;;6.17;1.53;;;23.80;70.20;;;;;;5029423;28;20674;-68
2023/08/20 10:01:34;;;;;;;6.50;1.43;;;23.80;67.80;;;;;;5027418;28;20509;-68
2023/08/20 10:03:59;;;;;;;4.97;1.30;;;23.60;69.60;;;;;;5030334;28;20040;-68
2023/08/20 10:06:26;;;;;;;7.03;1.20;;;23.70;69.70;;;;;;5031751;28;20041;-68
2023/08/20 10:08:53;;;;;;;8.90;2.13;;;23.80;69.40;;;;;;5026237;28;20557;-68
2023/08/20 10:11:19;;;;;;;7.87;1.60;;;23.90;68.40;;;;;;5032026;28;20052;-68
2023/08/20 10:13:45;;;;;;;6.63;1.40;;;23.90;68.80;;;;;;5031482;28;20246;-68
2023/08/20 10:16:13;;;;;;;5.57;0.90;;;23.80;69.50;;;;;;5028123;28;20046;-68
2023/08/20 10:18:40;;;;;;;6.97;1.40;;;23.90;68.30;;;;;;5029405;28;20549;-68
2023/08/20 10:21:09;;;;;;;6.53;1.10;;;23.90;67.30;;;;;;5023065;28;20073;-68
2023/08/20 10:23:35;;;;;;;5.87;1.37;;;23.90;68.00;;;;;;5010618;28;20116;-68
2023/08/20 10:26:08;;;;;;;7.57;1.10;;;24.00;68.20;;;;;;5025884;28;20041;-68
2023/08/20 10:28:34;;;;;;;6.03;1.20;;;24.20;68.40;;;;;;5010477;28;20112;-68
2023/08/20 10:31:11;;;;;;;7.27;1.27;;;24.30;67.00;;;;;;5022933;28;20095;-68
2023/08/20 10:33:48;;;;;;;6.03;1.47;;;24.50;68.00;;;;;;5010158;28;20033;-68
2023/08/20 10:36:22;;;;;;;6.17;1.10;;;24.70;67.00;;;;;;5011126;28;20021;-68
2023/08/20 10:38:49;;;;;;;9.45;1.70;;;24.60;64.80;;;;;;5029800;28;20032;-68
2023/08/20 10:41:16;;;;;;;7.03;1.70;;;24.30;64.80;;;;;;5026546;28;20041;-68
2023/08/20 10:43:49;;;;;;;9.30;1.80;;;24.10;66.50;;;;;;5029694;28;20087;-68
2023/08/20 10:46:20;;;;;;;7.97;1.23;;;24.00;66.80;;;;;;5028434;28;20128;-68
2023/08/20 10:48:49;;;;;;;7.30;1.40;;;24.10;68.50;;;;;;5029048;28;20036;-68
2023/08/20 10:51:16;;;;;;;5.53;1.23;;;24.20;68.10;;;;;;5028598;28;20048;-68
2023/08/20 10:53:48;;;;;;;7.63;1.10;;;24.50;67.90;;;;;;5021221;28;20103;-68
2023/08/20 10:56:16;;;;;;;6.13;1.37;;;24.60;65.50;;;;;;5029839;28;20452;-68
2023/08/20 10:58:46;;;;;;;7.70;1.30;;;24.50;65.00;;;;;;5009886;28;20505;-68
2023/08/20 11:01:20;;;;;;;6.07;1.10;;;24.50;66.40;;;;;;5014072;28;20044;-68
2023/08/20 11:03:48;;;;;;;5.30;0.97;;;24.60;65.60;;;;;;5026043;28;20041;-68
2023/08/20 11:06:14;;;;;;;8.30;1.40;;;24.70;64.90;;;;;;5011886;28;20060;-68
2023/08/20 11:08:41;;;;;;;7.13;1.23;;;24.80;65.10;;;;;;5030295;28;20033;-68
2023/08/20 11:11:07;;;;;;;5.07;1.27;;;24.80;64.70;;;;;;5025747;28;20405;-68
2023/08/20 11:13:34;;;;;;;7.73;2.17;;;24.90;64.30;;;;;;5012408;28;20545;-68
2023/08/20 11:16:01;;;;;;;6.77;1.83;;;25.10;65.10;;;;;;5025783;28;20517;-68
2023/08/20 11:18:27;;;;;;;3.87;1.10;;;25.20;63.60;;;;;;5028933;28;20427;-68
2023/08/20 11:20:54;;;;;;;5.43;1.17;;;25.30;62.90;;;;;;5029033;28;20127;-69
2023/08/20 11:23:22;;;;;;;8.47;1.20;;;25.30;60.80;;;;;;5024308;28;20490;-69
2023/08/20 11:25:47;;;;;;;5.40;0.90;;;25.20;61.50;;;;;;5024708;28;20055;-69
2023/08/20 11:28:13;;;;;;;6.77;1.27;;;25.00;61.30;;;;;;5026907;28;20167;-68
2023/08/20 11:30:39;;;;;;;4.23;1.00;;;24.90;63.00;;;;;;5025914;28;20526;-68
2023/08/20 11:33:05;;;;;;;4.87;0.80;;;25.00;63.10;;;;;;5027399;28;20029;-68
2023/08/20 11:35:32;;;;;;;5.70;0.80;;;25.20;63.20;;;;;;5025797;28;20045;-68
2023/08/20 11:37:58;;;;;;;4.67;0.80;;;25.20;62.00;;;;;;5031170;28;20112;-68
2023/08/20 11:40:24;;;;;;;5.83;0.90;;;25.10;61.80;;;;;;5040423;28;20037;-68
2023/08/20 11:42:50;;;;;;;6.03;1.20;;;25.10;61.80;;;;;;5017129;28;20485;-68
2023/08/20 11:45:16;;;;;;;5.57;1.47;;;25.00;62.20;;;;;;5007752;28;20071;-68
2023/08/20 11:47:42;;;;;;;3.90;0.93;;;25.20;61.70;;;;;;5018640;28;20041;-68
2023/08/20 11:50:09;;;;;;;5.53;1.00;;;25.10;61.30;;;;;;5016099;28;20037;-68
2023/08/20 11:52:36;;;;;;;3.80;1.00;;;24.90;61.40;;;;;;5022050;28;20745;-68
2023/08/20 11:55:03;;;;;;;5.13;1.33;;;24.70;62.60;;;;;;5016962;28;20049;-68
2023/08/20 11:57:29;;;;;;;6.37;0.93;;;24.80;62.90;;;;;;5021472;28;20041;-68
2023/08/20 11:59:59;;;;;;;5.83;1.50;;;24.80;62.30;;;;;;5020290;28;20045;-68
2023/08/20 12:02:27;;;;;;;7.53;1.27;;;24.70;63.50;;;;;;5027437;28;20049;-68
2023/08/20 12:04:56;;;;;;;4.53;1.40;;;24.60;63.40;;;;;;5029578;28;20568;-68
2023/08/20 12:07:28;;;;;;;5.33;1.40;;;24.60;64.40;;;;;;5029459;28;20455;-68
2023/08/20 12:09:55;;;;;;;7.13;1.20;;;24.60;64.50;;;;;;5029132;28;20039;-68
2023/08/20 12:12:21;;;;;;;7.97;1.37;;;24.70;65.50;;;;;;5030450;28;20485;-68
2023/08/20 12:14:47;;;;;;;7.33;0.93;;;24.80;64.80;;;;;;5033372;28;20075;-68
2023/08/20 12:17:17;;;;;;;7.23;1.20;;;24.90;64.40;;;;;;5030154;28;20567;-68
2023/08/20 12:19:43;;;;;;;5.30;0.87;;;24.90;62.90;;;;;;5014893;28;20052;-68
2023/08/20 12:22:08;;;;;;;6.77;0.90;;;24.80;62.40;;;;;;5016337;28;20122;-68
2023/08/20 12:24:34;;;;;;;6.87;0.93;;;24.60;62.60;;;;;;5025745;28;20065;-68
2023/08/20 12:27:00;;;;;;;3.27;0.97;;;24.60;63.80;;;;;;5031576;28;20041;-68
2023/08/20 12:29:25;;;;;;;5.50;1.00;;;24.90;64.00;;;;;;5009707;28;20037;-68
2023/08/20 12:31:51;;;;;;;6.00;1.40;;;25.10;63.20;;;;;;5028578;28;20040;-68
2023/08/20 12:34:17;;;;;;;6.83;1.30;;;25.20;62.10;;;;;;5032031;28;20064;-68
2023/08/20 12:36:43;;;;;;;7.03;1.57;;;25.20;61.90;;;;;;5031154;28;20071;-68
2023/08/20 12:39:09;;;;;;;8.20;2.17;;;25.30;61.40;;;;;;5025556;28;20045;-68
2023/08/20 12:41:38;;;;;;;8.00;1.13;;;25.40;61.40;;;;;;5023641;28;20579;-68
2023/08/20 12:44:04;;;;;;;6.03;1.57;;;25.50;61.20;;;;;;5017141;28;20041;-68